Elkhart Lake, Wisconsin
Current Conditions -  °F | °C
As of 12:53 AM on Sunday 26 Oct 2014 (Local Time) from KSBM Reporting Station
Clear Clear  
Wind Chill: 42°   Ceiling: Unl
Heat Index: 46°   Visibility: 10mi
Dew Point: 30°   Wind: 7mph
Humidity: 54%   Direction: 290°WNW
Pressure: 29.94"   Gusts: NA
Location:  43.83°N, 88.02°W
Report Text: KSBM 260553Z AUTO 29006KT 10SM CLR 08/M01 A2994 RMK AO2 SLP141 T00781011 10144 20078 401830078 53005
Loading
Personal Weather Stations






























Interactive Weather Map
Tropical Storm Tracking
New forecast layout! Learn more

10-Day Weather Forecast

Advertisements
Track Severe Weather on mobile